地図

経路データ

SID SEASON NUMBER BASIN SUBBASIN NAME ISO_TIME NATURE LAT LON WMO_WIND WMO_PRES WMO_AGENCY TRACK_TYPE DIST2LAND LANDFALL IFLAG USA_AGENCY USA_ATCF_ID USA_LAT USA_LON USA_RECORD USA_STATUS USA_WIND USA_PRES USA_SSHS USA_R34_NE USA_R34_SE USA_R34_SW USA_R34_NW USA_R50_NE USA_R50_SE USA_R50_SW USA_R50_NW USA_R64_NE USA_R64_SE USA_R64_SW USA_R64_NW USA_POCI USA_ROCI USA_RMW USA_EYE TOKYO_LAT TOKYO_LON TOKYO_GRADE TOKYO_WIND TOKYO_PRES TOKYO_R50_DIR TOKYO_R50_LONG TOKYO_R50_SHORT TOKYO_R30_DIR TOKYO_R30_LONG TOKYO_R30_SHORT TOKYO_LAND CMA_LAT CMA_LON CMA_CAT CMA_WIND CMA_PRES HKO_LAT HKO_LON HKO_CAT HKO_WIND HKO_PRES NEWDELHI_LAT NEWDELHI_LON NEWDELHI_GRADE NEWDELHI_WIND NEWDELHI_PRES NEWDELHI_CI NEWDELHI_DP NEWDELHI_POCI REUNION_LAT REUNION_LON REUNION_TYPE REUNION_WIND REUNION_PRES REUNION_TNUM REUNION_CI REUNION_RMW REUNION_R34_NE REUNION_R34_SE REUNION_R34_SW REUNION_R34_NW REUNION_R50_NE REUNION_R50_SE REUNION_R50_SW REUNION_R50_NW REUNION_R64_NE REUNION_R64_SE REUNION_R64_SW REUNION_R64_NW BOM_LAT BOM_LON BOM_TYPE BOM_WIND BOM_PRES BOM_TNUM BOM_CI BOM_RMW BOM_R34_NE BOM_R34_SE BOM_R34_SW BOM_R34_NW BOM_R50_NE BOM_R50_SE BOM_R50_SW BOM_R50_NW BOM_R64_NE BOM_R64_SE BOM_R64_SW BOM_R64_NW BOM_ROCI BOM_POCI BOM_EYE BOM_POS_METHOD BOM_PRES_METHOD NADI_LAT NADI_LON NADI_CAT NADI_WIND NADI_PRES WELLINGTON_LAT WELLINGTON_LON WELLINGTON_WIND WELLINGTON_PRES DS824_LAT DS824_LON DS824_STAGE DS824_WIND DS824_PRES TD9636_LAT TD9636_LON TD9636_STAGE TD9636_WIND TD9636_PRES TD9635_LAT TD9635_LON TD9635_WIND TD9635_PRES TD9635_ROCI NEUMANN_LAT NEUMANN_LON NEUMANN_CLASS NEUMANN_WIND NEUMANN_PRES MLC_LAT MLC_LON MLC_CLASS MLC_WIND MLC_PRES USA_GUST BOM_GUST BOM_GUST_PER REUNION_GUST REUNION_GUST_PER USA_SEAHGT USA_SEARAD_NE USA_SEARAD_SE USA_SEARAD_SW USA_SEARAD_NW STORM_SPEED STORM_DIR
1877042S14078 1877 6 SI MM NOT_NAMED 1877-02-11 00:00:00 TS -13.7000 77.7000 main 2219 2211 _________O____ -1 -13.7000 77.7000 TC 5 231
1877042S14078 1877 6 SI MM NOT_NAMED 1877-02-11 03:00:00 TS -13.8475 77.5125 main 2215 2197 _________P____ -1 -13.8475 77.5125 TC 2 17
1877042S14078 1877 6 SI MM NOT_NAMED 1877-02-11 06:00:00 TS -13.5000 77.7500 reunion main 2195 2195 _____O___O____ -1 -12.0000 79.1000 99 9.90000 -14.0000 77.3000 TC 3 22
1877042S14078 1877 6 SI MM NOT_NAMED 1877-02-11 09:00:00 TS -13.5627 77.6282 main 2209 2209 _____P___P____ -1 -12.3731 78.7845 99 -14.1575 77.0500 TC 3 239
1877042S14078 1877 6 SI MM NOT_NAMED 1877-02-11 12:00:00 TS -13.6336 77.5157 main 2211 2209 _____P___O____ -1 -12.7450 78.4699 99 -14.3000 76.8000 TC 3 232
1877042S14078 1877 6 SI MM NOT_NAMED 1877-02-11 15:00:00 TS -13.7574 77.3751 main 2205 2166 _____P___P____ -1 -13.1148 78.1578 99 -14.4000 76.5924 TC 5 227
1877042S14078 1877 6 SI MM NOT_NAMED 1877-02-11 18:00:00 TS -13.9907 77.1251 main 2166 2138 _____P___O____ -1 -13.4815 77.8502 99 -14.5000 76.4000 TC 7 225
1877042S14078 1877 6 SI MM NOT_NAMED 1877-02-11 21:00:00 TS -14.2358 76.8743 main 2138 2096 _____P___P____ -1 -13.8442 77.5487 99 -14.6275 76.2000 TC 7 223
1877042S14078 1877 6 SI MM NOT_NAMED 1877-02-12 00:00:00 TS -14.5011 76.6277 main 2096 2064 _____P___O____ -1 -14.2021 77.2554 99 -14.8000 76.0000 TC 7 220
1877042S14078 1877 6 SI MM NOT_NAMED 1877-02-12 03:00:00 TS -14.7909 76.3859 main 2064 2032 _____P___P____ -1 -14.5543 76.9718 99 -15.0275 75.8000 TC 8 218
1877042S14078 1877 6 SI MM NOT_NAMED 1877-02-12 06:00:00 TS -15.1000 76.1500 reunion main 2032 1991 _____O___O____ -1 -14.9000 76.7000 99 9.90000 -15.3000 75.6000 TC 8 216
1877042S14078 1877 6 SI MM NOT_NAMED 1877-02-12 09:00:00 TS -15.4194 75.9209 main 1991 1960 _____P___P____ -1 -15.2389 76.4417 99 -15.6000 75.4000 TC 8 214
1877042S14078 1877 6 SI MM NOT_NAMED 1877-02-12 12:00:00 TS -15.7364 75.6996 main 1960 1930 _____P___O____ -1 -15.5727 76.1992 99 -15.9000 75.2000 TC 7 214
1877042S14078 1877 6 SI MM NOT_NAMED 1877-02-12 15:00:00 TS -16.0269 75.4872 main 1930 1899 _____P___P____ -1 -15.9038 75.9746 99 -16.1500 74.9999 TC 7 214
1877042S14078 1877 6 SI MM NOT_NAMED 1877-02-12 18:00:00 TS -16.3173 75.2851 main 1899 1870 _____P___O____ -1 -16.2346 75.7702 99 -16.4000 74.8000 TC 7 213
1877042S14078 1877 6 SI MM NOT_NAMED 1877-02-12 21:00:00 TS -16.6224 75.0904 main 1870 1840 _____P___P____ -1 -16.5673 75.5882 99 -16.6775 74.5925 TC 7 209
1877042S14078 1877 6 SI MM NOT_NAMED 1877-02-13 00:00:00 TS -16.9521 74.9155 main 1838 1819 _____P___O____ -1 -16.9042 75.4310 99 -17.0000 74.4000 TC 8 205
1877042S14078 1877 6 SI MM NOT_NAMED 1877-02-13 03:00:00 TS -17.3163 74.7567 main 1819 1799 _____P___P____ -1 -17.2477 75.3008 99 -17.3850 74.2126 TC 8 199
1877042S14078 1877 6 SI MM NOT_NAMED 1877-02-13 06:00:00 TS -17.7000 74.6500 reunion main 1799 1780 _____O___O____ -1 -17.6000 75.2000 99 9.90000 -17.8000 74.1000 TC 8 192
1877042S14078 1877 6 SI MM NOT_NAMED 1877-02-13 09:00:00 TS -18.0725 74.5833 main 1780 1774 _____P___P____ -1 -17.9451 75.0618 99 -18.2000 74.1049 TC 8 185
1877042S14078 1877 6 SI MM NOT_NAMED 1877-02-13 12:00:00 TS -18.4479 74.5735 main 1774 1767 _____P___O____ -1 -18.2958 74.9469 99 -18.6000 74.2000 TC 8 0
1877042S14078 1877 6 SI MM NOT_NAMED 1877-02-13 15:00:00 TS -18.8277 74.5955 main 1767 1763 _____P___P____ -1 -18.6553 74.8634 99 -19.0000 74.3275 TC 8 174
1877042S14078 1877 6 SI MM NOT_NAMED 1877-02-13 18:00:00 TS -19.2135 74.6596 main 1772 1767 _____P___O____ -1 -19.0269 74.8192 99 -19.4000 74.5000 TC 8 169
1877042S14078 1877 6 SI MM NOT_NAMED 1877-02-13 21:00:00 TS -19.6069 74.7501 main 1777 1774 _____P___P____ -1 -19.4140 74.8225 99 -19.7999 74.6777 TC 8 165
1877042S14078 1877 6 SI MM NOT_NAMED 1877-02-14 00:00:00 TS -20.0098 74.8907 main 1784 1783 _____P___O____ -1 -19.8197 74.8814 99 -20.2000 74.9000 TC 9 158
1877042S14078 1877 6 SI MM NOT_NAMED 1877-02-14 03:00:00 TS -20.4274 75.0947 main 1802 1802 _____P___P____ -1 -20.2473 75.0044 99 -20.6075 75.1850 TC 9 153
1877042S14078 1877 6 SI MM NOT_NAMED 1877-02-14 06:00:00 TS -20.8500 75.3500 reunion main 1832 1821 _____O___O____ -1 -20.7000 75.2000 99 9.90000 -21.0000 75.5000 TC 10 149
1877042S14078 1877 6 SI MM NOT_NAMED 1877-02-14 09:00:00 TS -21.3052 75.6594 main 1862 1862 _____P___P____ -1 -21.2456 75.5261 99 -21.3649 75.7927 TC 11 146
1877042S14078 1877 6 SI MM NOT_NAMED 1877-02-14 12:00:00 TS -21.7620 76.0183 main 1894 1894 _____P___O____ -1 -21.8241 75.9366 99 -21.7000 76.1000 TC 12 142
1877042S14078 1877 6 SI MM NOT_NAMED 1877-02-14 15:00:00 TS -22.2201 76.4260 main 1937 1937 _____P___P____ -1 -22.4177 76.4095 99 -22.0225 76.4425 TC 12 140
1877042S14078 1877 6 SI MM NOT_NAMED 1877-02-14 18:00:00 TS -22.7050 76.8699 main 1992 1992 _____P___O____ -1 -23.0088 76.9223 99 -22.3000 76.8000 TC 13 140
1877042S14078 1877 6 SI MM NOT_NAMED 1877-02-14 21:00:00 TS -23.2256 77.3521 main 2047 2047 _____P___P____ -1 -23.5796 77.4520 99 -22.5176 77.1524 TC 15 140
1877042S14078 1877 6 SI MM NOT_NAMED 1877-02-15 00:00:00 TS -23.8304 77.8797 main 2105 2105 _____P___O____ -1 -24.1130 77.9746 99 -22.7000 77.5000 TC 17 143
1877042S14078 1877 6 SI MM NOT_NAMED 1877-02-15 03:00:00 NR -24.5919 78.4656 main 2177 2177 _____P________ -1 -24.5919 78.4656 99 TC 15 142
1877042S14078 1877 6 SI MM NOT_NAMED 1877-02-15 06:00:00 NR -25.0000 78.9000 reunion main 2224 2224 _____O________ -1 -25.0000 78.9000 99 9.90000 10 136
1877042S14078 1877 6 SI MM NOT_NAMED 1877-02-15 09:00:00 NR -25.3256 79.2582 main 2269 2269 _____P________ -1 -25.3256 79.2582 99 8 135
1877042S14078 1877 6 SI MM NOT_NAMED 1877-02-15 12:00:00 NR -25.5754 79.5440 main 2295 2295 _____P________ -1 -25.5754 79.5440 99 6 134
1877042S14078 1877 6 SI MM NOT_NAMED 1877-02-15 15:00:00 NR -25.7607 79.7669 main 2329 2329 _____P________ -1 -25.7607 79.7669 99 5 132
1877042S14078 1877 6 SI MM NOT_NAMED 1877-02-15 18:00:00 NR -25.8925 79.9371 main 2340 2340 _____P________ -1 -25.8925 79.9371 99 3 130
1877042S14078 1877 6 SI MM NOT_NAMED 1877-02-15 21:00:00 NR -25.9816 80.0651 main 2362 2362 _____P________ -1 -25.9816 80.0651 99 2 126
1877042S14078 1877 6 SI MM NOT_NAMED 1877-02-16 00:00:00 NR -26.0388 80.1611 main 2372 2372 _____P________ -1 -26.0388 80.1611 99 2 121
1877042S14078 1877 6 SI MM NOT_NAMED 1877-02-16 03:00:00 NR -26.0747 80.2359 main 2374 2374 _____P________ -1 -26.0747 80.2359 99 1 117
1877042S14078 1877 6 SI MM NOT_NAMED 1877-02-16 06:00:00 NR -26.1000 80.3000 main 2384 _____O________ -1 -26.1000 80.3000 99 9.90000 1 117

IBTrACS Databaseについて

本データベースは、米国NOAAが公開する1842年以降の世界の熱帯低気圧のベストトラックデータアーカイブInternational Best Track Archive for Climate Stewardship (IBTrACS)を、ウェブで閲覧しやすい形式に変換したものです。

最終更新日:2021-10-25